createdAt,value
2018-08-17T00:02:14.310Z,4.17
2018-08-17T00:04:42.839Z,4.03
2018-08-17T00:07:13.336Z,4.37
2018-08-17T00:09:41.799Z,4.57
2018-08-17T00:12:10.266Z,4.30
2018-08-17T00:14:40.930Z,4.50
2018-08-17T00:17:09.537Z,4.40
2018-08-17T00:19:38.059Z,5.03
2018-08-17T00:22:06.623Z,4.90
2018-08-17T00:24:34.937Z,5.40
2018-08-17T00:27:03.244Z,5.20
2018-08-17T00:29:31.655Z,5.70
2018-08-17T00:31:59.927Z,5.90
2018-08-17T00:34:31.195Z,4.50
2018-08-17T00:36:59.798Z,4.80
2018-08-17T00:39:28.352Z,3.80
2018-08-17T00:41:56.824Z,3.97
2018-08-17T00:44:25.061Z,4.43
2018-08-17T00:46:53.294Z,4.90
2018-08-17T00:49:21.698Z,3.70
2018-08-17T00:51:50.159Z,4.37
2018-08-17T00:54:18.576Z,4.53
2018-08-17T00:56:46.958Z,5.00
2018-08-17T00:59:15.337Z,4.70
2018-08-17T01:01:43.770Z,4.33
2018-08-17T01:04:12.167Z,4.70
2018-08-17T01:06:40.511Z,4.80
2018-08-17T01:10:33.398Z,5.10
2018-08-17T01:13:01.788Z,4.67
2018-08-17T01:15:30.313Z,5.90
2018-08-17T01:17:58.742Z,5.20
2018-08-17T01:20:27.146Z,5.00
2018-08-17T01:22:55.535Z,4.80
2018-08-17T01:25:24.106Z,5.27
2018-08-17T01:27:52.775Z,5.50
2018-08-17T01:30:21.223Z,4.40
2018-08-17T01:32:49.888Z,5.60
2018-08-17T01:35:18.558Z,5.17
2018-08-17T01:37:47.130Z,5.40
2018-08-17T01:40:15.594Z,5.17
2018-08-17T01:42:44.208Z,4.80
2018-08-17T01:45:13.249Z,4.63
2018-08-17T01:47:41.820Z,4.73
2018-08-17T01:50:10.317Z,4.53
2018-08-17T01:52:38.793Z,5.57
2018-08-17T01:55:09.642Z,4.80
2018-08-17T01:57:38.102Z,4.90
2018-08-17T02:00:09.746Z,4.57
2018-08-17T02:02:39.779Z,5.60
2018-08-17T02:05:09.038Z,4.87
2018-08-17T02:07:37.649Z,5.13
2018-08-17T02:10:09.431Z,5.43
2018-08-17T02:12:38.304Z,5.27
2018-08-17T02:15:07.003Z,5.07
2018-08-17T02:17:35.402Z,4.90
2018-08-17T02:20:04.093Z,5.73
2018-08-17T02:22:32.481Z,5.23
2018-08-17T02:25:00.917Z,5.30
2018-08-17T02:27:29.419Z,4.07
2018-08-17T02:29:58.095Z,4.40
2018-08-17T02:32:26.646Z,4.77
2018-08-17T02:34:54.869Z,4.97
2018-08-17T02:37:23.454Z,4.50
2018-08-17T02:39:51.673Z,4.73
2018-08-17T02:42:20.142Z,4.00
2018-08-17T02:44:48.711Z,4.67
2018-08-17T02:47:17.216Z,5.10
2018-08-17T02:49:45.734Z,5.20
2018-08-17T02:52:14.530Z,4.50
2018-08-17T02:54:43.051Z,4.30
2018-08-17T02:57:11.466Z,4.00
2018-08-17T02:59:39.960Z,4.60
2018-08-17T03:02:08.454Z,5.43
2018-08-17T03:04:37.085Z,4.60
2018-08-17T03:07:05.603Z,4.70
2018-08-17T03:09:34.133Z,4.57
2018-08-17T03:12:02.602Z,4.53
2018-08-17T03:14:31.238Z,4.70
2018-08-17T03:16:59.832Z,4.43
2018-08-17T03:19:28.445Z,4.17
2018-08-17T03:21:56.811Z,5.43
2018-08-17T03:24:25.218Z,5.00
2018-08-17T03:26:53.667Z,4.53
2018-08-17T03:29:22.185Z,4.97
2018-08-17T03:31:50.636Z,5.67
2018-08-17T03:34:18.982Z,3.73
2018-08-17T03:36:47.352Z,4.40
2018-08-17T03:39:15.507Z,4.40
2018-08-17T03:41:43.945Z,4.30
2018-08-17T03:44:12.550Z,4.77
2018-08-17T03:46:40.970Z,4.40
2018-08-17T03:49:09.383Z,4.40
2018-08-17T03:51:37.874Z,4.93
2018-08-17T03:54:06.587Z,4.20
2018-08-17T03:56:35.066Z,3.93
2018-08-17T03:59:03.847Z,4.07
2018-08-17T04:01:32.388Z,4.50
2018-08-17T04:04:00.895Z,5.10
2018-08-17T04:06:29.248Z,3.90
2018-08-17T04:08:57.934Z,4.33
2018-08-17T04:11:26.444Z,3.60
2018-08-17T04:13:54.790Z,3.73
2018-08-17T04:16:23.208Z,4.27
2018-08-17T04:18:55.954Z,3.40
2018-08-17T04:21:24.412Z,3.63
2018-08-17T04:23:53.023Z,3.50
2018-08-17T04:26:21.625Z,3.80
2018-08-17T04:28:50.643Z,3.40
2018-08-17T04:31:19.534Z,3.10
2018-08-17T04:33:48.096Z,3.17
2018-08-17T04:36:17.119Z,3.90
2018-08-17T04:38:45.566Z,3.40
2018-08-17T04:41:13.928Z,2.90
2018-08-17T04:43:42.512Z,3.10
2018-08-17T04:46:10.952Z,3.20
2018-08-17T04:48:39.513Z,4.20
2018-08-17T04:51:08.380Z,3.60
2018-08-17T04:53:38.076Z,3.13
2018-08-17T04:56:06.522Z,3.77
2018-08-17T04:58:34.970Z,3.20
2018-08-17T05:01:03.081Z,3.90
2018-08-17T05:03:31.665Z,4.00
2018-08-17T05:06:00.099Z,4.27
2018-08-17T05:08:28.631Z,4.23
2018-08-17T05:10:57.288Z,3.57
2018-08-17T05:13:25.665Z,3.53
2018-08-17T05:15:54.197Z,4.33
2018-08-17T05:18:22.786Z,4.70
2018-08-17T05:20:51.335Z,3.57
2018-08-17T05:23:19.807Z,3.90
2018-08-17T05:28:36.864Z,4.90
2018-08-17T05:31:05.411Z,6.00
2018-08-17T05:33:33.970Z,5.90
2018-08-17T05:36:02.309Z,6.27
2018-08-17T05:38:30.977Z,6.60
2018-08-17T05:40:59.360Z,6.40
2018-08-17T05:43:27.776Z,6.20
2018-08-17T05:45:56.542Z,6.30
2018-08-17T05:48:24.811Z,6.57
2018-08-17T05:50:53.242Z,6.30
2018-08-17T05:53:22.007Z,5.60
2018-08-17T05:55:50.532Z,5.13
2018-08-17T05:58:18.924Z,5.03
2018-08-17T06:00:47.314Z,4.77
2018-08-17T06:03:15.788Z,5.37
2018-08-17T06:05:44.235Z,5.10
2018-08-17T06:08:12.697Z,4.90
2018-08-17T06:10:41.010Z,5.20
2018-08-17T06:13:09.392Z,4.40
2018-08-17T06:15:37.822Z,4.33
2018-08-17T06:18:06.280Z,5.00
2018-08-17T06:20:34.899Z,4.60
2018-08-17T06:23:03.369Z,4.50
2018-08-17T06:25:31.842Z,4.13
2018-08-17T06:28:00.299Z,4.03
2018-08-17T06:30:28.831Z,4.70
2018-08-17T06:32:57.223Z,4.10
2018-08-17T06:35:25.690Z,3.90
2018-08-17T06:37:54.214Z,3.50
2018-08-17T06:40:22.823Z,4.17
2018-08-17T06:42:51.347Z,3.17
2018-08-17T06:45:19.795Z,4.20
2018-08-17T06:47:48.171Z,3.07
2018-08-17T06:50:16.727Z,3.20
2018-08-17T06:52:45.301Z,3.57
2018-08-17T06:55:13.832Z,2.93
2018-08-17T06:57:42.322Z,3.40
2018-08-17T07:00:13.548Z,3.20
2018-08-17T07:02:42.986Z,3.47
2018-08-17T07:05:11.333Z,3.40
2018-08-17T07:07:41.514Z,3.00
2018-08-17T07:10:12.559Z,3.17
2018-08-17T07:12:41.823Z,2.93
2018-08-17T07:15:11.510Z,3.27
2018-08-17T07:17:40.275Z,3.80
2018-08-17T07:20:10.458Z,3.00
2018-08-17T07:22:38.938Z,3.07
2018-08-17T07:25:07.485Z,3.27
2018-08-17T07:27:35.949Z,3.20
2018-08-17T07:30:06.960Z,2.87
2018-08-17T07:32:35.363Z,2.80
2018-08-17T07:35:04.002Z,3.07
2018-08-17T07:37:32.479Z,3.27
2018-08-17T07:40:01.257Z,3.17
2018-08-17T07:42:29.766Z,3.27
2018-08-17T07:44:58.188Z,2.70
2018-08-17T07:47:26.633Z,2.83
2018-08-17T07:49:55.007Z,3.00
2018-08-17T07:52:23.389Z,3.10
2018-08-17T07:54:51.735Z,3.47
2018-08-17T07:57:20.441Z,2.90
2018-08-17T07:59:49.016Z,2.80
2018-08-17T08:02:17.460Z,2.83
2018-08-17T08:04:45.887Z,2.57
2018-08-17T08:07:14.232Z,2.87
2018-08-17T08:09:42.653Z,2.97
2018-08-17T08:12:11.113Z,2.50
2018-08-17T08:14:39.548Z,2.13
2018-08-17T08:17:08.002Z,2.30
2018-08-17T08:19:36.551Z,2.10
2018-08-17T08:22:05.188Z,2.40
2018-08-17T08:24:37.213Z,2.40
2018-08-17T08:27:06.733Z,2.30
2018-08-17T08:29:35.217Z,2.53
2018-08-17T08:32:03.745Z,2.20
2018-08-17T08:34:32.264Z,2.30
2018-08-17T08:37:00.753Z,2.50
2018-08-17T08:39:29.175Z,2.10
2018-08-17T08:41:57.732Z,2.27
2018-08-17T08:44:26.218Z,2.80
2018-08-17T08:46:54.809Z,2.50
2018-08-17T08:49:24.395Z,2.33
2018-08-17T08:51:52.949Z,2.17
2018-08-17T08:54:21.489Z,2.20
2018-08-17T08:56:50.008Z,2.53
2018-08-17T08:59:18.536Z,2.00
2018-08-17T09:01:47.169Z,2.20
2018-08-17T09:04:15.653Z,2.90
2018-08-17T09:06:44.162Z,2.73
2018-08-17T09:09:13.762Z,2.77
2018-08-17T09:11:42.336Z,2.50
2018-08-17T09:14:10.930Z,2.60
2018-08-17T09:16:39.504Z,2.23
2018-08-17T09:19:07.992Z,2.47
2018-08-17T09:21:36.580Z,2.33
2018-08-17T09:24:04.909Z,2.10
2018-08-17T09:26:33.300Z,2.00
2018-08-17T09:29:01.668Z,2.07
2018-08-17T09:31:30.096Z,1.87
2018-08-17T09:33:58.676Z,2.23
2018-08-17T09:36:27.104Z,2.30
2018-08-17T09:38:55.577Z,2.20
2018-08-17T09:41:23.998Z,2.00
2018-08-17T09:43:52.509Z,1.93
2018-08-17T09:46:20.955Z,2.13
2018-08-17T09:48:49.443Z,1.83
2018-08-17T09:51:17.844Z,2.27
2018-08-17T09:53:46.165Z,1.67
2018-08-17T09:56:14.522Z,1.77
2018-08-17T09:58:43.045Z,2.07
2018-08-17T10:01:17.084Z,1.93
2018-08-17T10:03:53.052Z,1.70
2018-08-17T10:06:26.792Z,1.80
2018-08-17T10:09:00.737Z,1.90
2018-08-17T10:11:29.367Z,2.37
2018-08-17T10:13:57.713Z,2.50
2018-08-17T10:16:26.126Z,2.10
2018-08-17T10:18:54.528Z,1.93
2018-08-17T10:21:23.266Z,2.20
2018-08-17T10:23:51.453Z,2.03
2018-08-17T10:26:19.851Z,2.30
2018-08-17T10:28:48.165Z,2.10
2018-08-17T10:31:17.679Z,2.13
2018-08-17T10:33:48.285Z,1.87
2018-08-17T10:36:16.788Z,1.90
2018-08-17T10:38:45.165Z,1.80
2018-08-17T10:41:13.514Z,2.57
2018-08-17T10:43:42.002Z,2.23
2018-08-17T10:46:10.421Z,2.20
2018-08-17T10:48:38.916Z,2.00
2018-08-17T10:51:07.545Z,2.00
2018-08-17T10:53:46.504Z,2.20
2018-08-17T10:56:14.975Z,2.17
2018-08-17T10:58:43.490Z,2.00
2018-08-17T11:01:11.900Z,1.83
2018-08-17T11:03:40.338Z,2.00
2018-08-17T11:06:08.781Z,2.03
2018-08-17T11:08:36.832Z,2.27
2018-08-17T11:11:05.090Z,1.97
2018-08-17T11:13:33.488Z,2.30
2018-08-17T11:16:02.107Z,2.10
2018-08-17T11:18:30.226Z,2.27
2018-08-17T11:20:58.715Z,2.23
2018-08-17T11:23:27.327Z,1.90
2018-08-17T11:25:55.949Z,2.07
2018-08-17T11:28:24.664Z,2.50
2018-08-17T11:30:53.119Z,2.10
2018-08-17T11:33:26.383Z,2.07
2018-08-17T11:35:55.282Z,2.00
2018-08-17T11:38:23.750Z,2.03
2018-08-17T11:40:52.269Z,1.60
2018-08-17T11:43:20.849Z,1.90
2018-08-17T11:45:49.269Z,2.30
2018-08-17T11:48:34.295Z,1.77
2018-08-17T11:51:02.795Z,2.00
2018-08-17T11:53:31.261Z,1.60
2018-08-17T11:55:59.640Z,1.90
2018-08-17T11:58:28.123Z,1.63
2018-08-17T12:00:56.660Z,1.97
2018-08-17T12:03:25.265Z,1.70
2018-08-17T12:05:53.805Z,1.80
2018-08-17T12:08:22.579Z,1.90
2018-08-17T12:10:56.488Z,1.97
2018-08-17T12:13:25.135Z,1.80
2018-08-17T12:15:55.600Z,2.20
2018-08-17T12:18:24.377Z,2.23
2018-08-17T12:20:53.388Z,2.00
2018-08-17T12:23:22.246Z,1.63
2018-08-17T12:25:56.867Z,2.47
2018-08-17T12:28:26.903Z,1.80
2018-08-17T12:30:56.098Z,2.07
2018-08-17T12:33:24.418Z,2.07
2018-08-17T12:35:53.249Z,1.83
2018-08-17T12:38:21.790Z,2.00
2018-08-17T12:40:51.712Z,2.00
2018-08-17T12:43:24.131Z,2.10
2018-08-17T12:45:52.622Z,1.83
2018-08-17T12:48:21.207Z,1.73
2018-08-17T12:50:50.370Z,1.80
2018-08-17T12:53:18.895Z,1.97
2018-08-17T12:55:47.455Z,2.23
2018-08-17T12:58:16.150Z,2.13
2018-08-17T13:00:44.740Z,2.50
2018-08-17T13:03:13.223Z,1.93
2018-08-17T13:05:41.814Z,1.80
2018-08-17T13:08:10.370Z,2.10
2018-08-17T13:10:39.035Z,2.30
2018-08-17T13:13:08.847Z,2.20
2018-08-17T13:15:37.983Z,2.10
2018-08-17T13:18:12.747Z,1.80
2018-08-17T13:20:41.237Z,2.07
2018-08-17T13:23:09.744Z,1.83
2018-08-17T13:25:38.535Z,2.30
2018-08-17T13:28:06.969Z,2.27
2018-08-17T13:30:35.607Z,2.10
2018-08-17T13:34:29.001Z,2.07
2018-08-17T13:36:58.475Z,2.10
2018-08-17T13:39:26.927Z,2.33
2018-08-17T13:41:55.516Z,2.20
2018-08-17T13:44:24.059Z,2.00
2018-08-17T13:46:53.675Z,2.23
2018-08-17T13:49:22.310Z,1.77
2018-08-17T13:51:51.438Z,2.17
2018-08-17T13:54:19.719Z,2.07
2018-08-17T13:56:48.239Z,2.00
2018-08-17T13:59:16.832Z,2.30
2018-08-17T14:01:45.293Z,1.83
2018-08-17T14:04:13.619Z,1.90
2018-08-17T14:06:42.130Z,2.10
2018-08-17T14:09:10.724Z,2.30
2018-08-17T14:11:39.261Z,2.17
2018-08-17T14:14:07.794Z,2.40
2018-08-17T14:16:37.230Z,1.77
2018-08-17T14:19:08.220Z,2.33
2018-08-17T14:21:37.909Z,2.20
2018-08-17T14:24:10.891Z,2.47
2018-08-17T14:26:47.270Z,2.70
2018-08-17T14:29:21.953Z,2.60
2018-08-17T14:31:50.344Z,2.30
2018-08-17T14:34:18.702Z,2.03
2018-08-17T14:36:46.856Z,2.27
2018-08-17T14:39:15.284Z,2.07
2018-08-17T14:42:00.221Z,1.60
2018-08-17T14:44:28.955Z,2.03
2018-08-17T14:46:57.480Z,2.77
2018-08-17T14:49:26.378Z,2.10
2018-08-17T14:51:54.848Z,2.57
2018-08-17T14:54:25.155Z,2.30
2018-08-17T14:56:53.553Z,3.00
2018-08-17T14:59:22.221Z,2.07
2018-08-17T15:01:50.438Z,2.30
2018-08-17T15:04:19.925Z,2.07
2018-08-17T15:06:48.354Z,2.13
2018-08-17T15:09:16.799Z,2.23
2018-08-17T15:11:45.376Z,2.10
2018-08-17T15:14:15.878Z,2.00
2018-08-17T15:16:44.343Z,1.90
2018-08-17T15:19:14.005Z,2.10
2018-08-17T15:21:42.428Z,2.00
2018-08-17T15:24:11.436Z,2.30
2018-08-17T15:26:40.588Z,2.30
2018-08-17T15:29:09.007Z,2.07
2018-08-17T15:31:38.064Z,2.20
2018-08-17T15:34:06.986Z,2.03
2018-08-17T15:36:35.412Z,2.30
2018-08-17T15:39:04.933Z,2.07
2018-08-17T15:41:33.451Z,1.97
2018-08-17T15:44:01.881Z,2.27
2018-08-17T15:46:33.331Z,2.17
2018-08-17T15:49:01.594Z,2.17
2018-08-17T15:51:29.974Z,2.20
2018-08-17T15:53:59.471Z,1.80
2018-08-17T15:56:28.945Z,2.10
2018-08-17T15:59:06.374Z,2.40
2018-08-17T16:01:35.344Z,2.33
2018-08-17T16:04:03.465Z,2.27
2018-08-17T16:06:31.693Z,2.57
2018-08-17T16:08:59.910Z,1.87
2018-08-17T16:11:28.088Z,2.07
2018-08-17T16:13:56.239Z,2.60
2018-08-17T16:16:24.429Z,2.27
2018-08-17T16:18:52.608Z,2.70
2018-08-17T16:21:20.786Z,1.90
2018-08-17T16:23:48.947Z,2.23
2018-08-17T16:26:17.121Z,2.07
2018-08-17T16:28:45.274Z,2.10
2018-08-17T16:31:13.424Z,2.07
2018-08-17T16:33:41.608Z,2.37
2018-08-17T16:36:09.764Z,2.60
2018-08-17T16:38:38.642Z,2.00
2018-08-17T16:41:06.995Z,2.60
2018-08-17T16:43:43.309Z,2.20
2018-08-17T16:46:11.819Z,2.20
2018-08-17T16:48:40.938Z,2.80
2018-08-17T16:51:09.214Z,2.13
2018-08-17T16:53:44.145Z,2.17
2018-08-17T16:56:12.296Z,2.10
2018-08-17T16:58:40.471Z,2.30
2018-08-17T17:01:09.708Z,2.50
2018-08-17T17:03:37.966Z,2.03
2018-08-17T17:13:08.636Z,1.90
2018-08-17T17:15:36.831Z,2.10
2018-08-17T17:18:09.372Z,2.50
2018-08-17T17:20:38.514Z,2.80
2018-08-17T17:23:09.099Z,2.20
2018-08-17T17:25:37.572Z,2.47
2018-08-17T17:28:05.912Z,2.10
2018-08-17T17:30:41.454Z,2.33
2018-08-17T17:33:10.203Z,2.57
2018-08-17T17:35:39.590Z,2.30
2018-08-17T17:38:08.271Z,2.33
2018-08-17T17:40:36.540Z,2.40
2018-08-17T17:43:05.056Z,2.40
2018-08-17T17:45:33.251Z,2.67
2018-08-17T17:48:03.055Z,2.23
2018-08-17T17:50:32.320Z,2.60
2018-08-17T17:53:01.719Z,3.70
2018-08-17T17:55:51.314Z,5.40
2018-08-17T17:58:20.718Z,4.40
2018-08-17T18:00:59.950Z,3.80
2018-08-17T18:03:29.544Z,4.27
2018-08-17T18:06:01.359Z,4.83
2018-08-17T18:08:30.194Z,5.77
2018-08-17T18:10:58.414Z,5.33
2018-08-17T18:13:26.736Z,5.60
2018-08-17T18:15:54.948Z,5.37
2018-08-17T18:18:23.280Z,5.70
2018-08-17T18:20:51.682Z,5.13
2018-08-17T18:23:19.879Z,5.10
2018-08-17T18:25:48.164Z,5.40
2018-08-17T18:28:16.331Z,5.80
2018-08-17T18:30:45.554Z,5.40
2018-08-17T18:33:13.715Z,5.63
2018-08-17T18:35:41.992Z,9.30
2018-08-17T18:38:10.138Z,9.60
2018-08-17T18:40:38.303Z,10.30
2018-08-17T18:43:06.464Z,14.80
2018-08-17T18:45:34.627Z,15.10
2018-08-17T18:48:02.806Z,15.60
2018-08-17T18:50:30.962Z,16.03
2018-08-17T18:52:59.118Z,13.20
2018-08-17T18:55:27.288Z,15.30
2018-08-17T18:57:55.455Z,14.40
2018-08-17T19:00:23.709Z,9.83
2018-08-17T19:02:51.991Z,10.00
2018-08-17T19:05:20.242Z,9.20
2018-08-17T19:07:48.507Z,6.90
2018-08-17T19:10:18.150Z,6.13
2018-08-17T19:12:46.537Z,6.10
2018-08-17T19:15:14.771Z,5.50
2018-08-17T19:17:42.952Z,5.70
2018-08-17T19:21:15.195Z,5.83
2018-08-17T19:23:43.434Z,5.03
2018-08-17T19:26:11.981Z,5.50
2018-08-17T19:28:40.251Z,4.60
2018-08-17T19:31:08.475Z,5.17
2018-08-17T19:33:36.738Z,6.47
2018-08-17T19:36:05.272Z,5.00
2018-08-17T19:38:37.857Z,4.90
2018-08-17T19:41:06.115Z,4.17
2018-08-17T19:43:34.376Z,4.60
2018-08-17T19:46:02.810Z,4.70
2018-08-17T19:48:30.983Z,4.50
2018-08-17T19:50:59.244Z,5.67
2018-08-17T19:53:27.542Z,6.30
2018-08-17T19:55:55.834Z,5.60
2018-08-17T19:58:23.999Z,5.17
2018-08-17T20:00:52.254Z,5.17
2018-08-17T20:03:20.555Z,4.93
2018-08-17T20:05:48.840Z,4.73
2018-08-17T20:08:17.030Z,4.37
2018-08-17T20:10:45.324Z,4.43
2018-08-17T20:13:13.574Z,4.47
2018-08-17T20:15:41.880Z,4.50
2018-08-17T20:18:10.172Z,4.67
2018-08-17T20:20:38.444Z,5.93
2018-08-17T20:23:06.690Z,4.63
2018-08-17T20:25:34.973Z,5.00
2018-08-17T20:28:03.224Z,5.03
2018-08-17T20:30:31.491Z,4.80
2018-08-17T20:32:59.799Z,4.50
2018-08-17T20:35:28.031Z,4.70
2018-08-17T20:37:56.335Z,5.70
2018-08-17T20:40:24.591Z,5.30
2018-08-17T20:42:52.799Z,5.27
2018-08-17T20:45:24.955Z,4.57
2018-08-17T20:47:53.238Z,5.33
2018-08-17T20:50:21.519Z,4.47
2018-08-17T20:52:55.207Z,4.23
2018-08-17T20:55:23.228Z,4.47
2018-08-17T20:57:52.347Z,4.70
2018-08-17T21:00:21.356Z,4.43
2018-08-17T21:02:49.522Z,4.07
2018-08-17T21:05:17.742Z,4.07
2018-08-17T21:07:46.831Z,4.00
2018-08-17T21:10:15.064Z,4.27
2018-08-17T21:12:43.424Z,4.50
2018-08-17T21:15:11.716Z,3.83
2018-08-17T21:17:39.911Z,4.00
2018-08-17T21:20:08.141Z,5.03
2018-08-17T21:22:36.355Z,3.50
2018-08-17T21:25:04.789Z,4.07
2018-08-17T21:27:33.005Z,4.97
2018-08-17T21:30:01.777Z,4.40
2018-08-17T21:32:30.032Z,4.20
2018-08-17T21:34:58.290Z,4.10
2018-08-17T21:37:27.155Z,4.30
2018-08-17T21:39:55.331Z,4.20
2018-08-17T21:42:23.501Z,4.90
2018-08-17T21:44:51.642Z,4.60
2018-08-17T21:47:19.870Z,4.20
2018-08-17T21:49:48.074Z,4.33
2018-08-17T21:52:21.752Z,4.10
2018-08-17T21:54:49.925Z,3.83
2018-08-17T21:57:17.836Z,3.87
2018-08-17T21:59:48.924Z,4.03
2018-08-17T22:02:17.441Z,3.90
2018-08-17T22:04:45.566Z,4.50
2018-08-17T22:07:16.727Z,3.90
2018-08-17T22:09:44.942Z,4.20
2018-08-17T22:12:13.641Z,3.73
2018-08-17T22:14:41.742Z,4.97
2018-08-17T22:17:21.359Z,5.07
2018-08-17T22:19:49.576Z,4.20
2018-08-17T22:22:17.780Z,4.03
2018-08-17T22:24:50.624Z,3.97
2018-08-17T22:27:19.506Z,4.20
2018-08-17T22:29:49.276Z,5.23
2018-08-17T22:32:17.620Z,4.50
2018-08-17T22:34:46.072Z,4.27
2018-08-17T22:37:14.321Z,4.80
2018-08-17T22:39:42.494Z,5.23
2018-08-17T22:42:10.743Z,4.30
2018-08-17T22:44:38.952Z,4.77
2018-08-17T22:47:14.403Z,4.87
2018-08-17T22:49:42.656Z,4.70
2018-08-17T22:52:10.888Z,4.97
2018-08-17T22:54:46.370Z,4.40
2018-08-17T22:57:15.203Z,5.03
2018-08-17T22:59:49.990Z,4.40
2018-08-17T23:02:18.175Z,4.60
2018-08-17T23:04:46.394Z,4.30
2018-08-17T23:07:14.635Z,5.93
2018-08-17T23:09:42.879Z,4.50
2018-08-17T23:12:11.176Z,5.43
2018-08-17T23:14:39.461Z,5.43
2018-08-17T23:17:07.718Z,5.60
2018-08-17T23:19:42.631Z,5.97
2018-08-17T23:22:10.835Z,5.00
2018-08-17T23:24:39.069Z,4.20
2018-08-17T23:27:07.281Z,5.10
2018-08-17T23:29:35.487Z,5.00
2018-08-17T23:32:03.680Z,4.70
2018-08-17T23:34:31.886Z,4.97
2018-08-17T23:37:00.089Z,5.40
2018-08-17T23:39:28.355Z,4.73
2018-08-17T23:41:56.577Z,4.33
2018-08-17T23:44:24.957Z,5.70
2018-08-17T23:46:53.158Z,5.60
2018-08-17T23:49:21.587Z,4.40
2018-08-17T23:51:49.827Z,5.23
2018-08-17T23:54:18.138Z,4.57
2018-08-17T23:56:46.408Z,5.27
2018-08-17T23:59:14.655Z,5.33
